Time,TemperatureF,DewpointF,PressureIn,WindDirection,WindDirectionDegrees,WindSpeedMPH,WindSpeedGustMPH,Humidity,HourlyPrecipIn,Conditions,Clouds,dailyrainin,SoftwareType,DateUTC
2013-03-17 00:02:00,34.2,19.0,29.92,ESE,115,0.0,3.0,55,0.00,,,0.00,weatherlink.com 1.10,2013-03-17 04:02:00,
2013-03-17 00:17:00,34.0,20.0,29.92,East,88,2.0,2.0,56,0.00,,,0.00,weatherlink.com 1.10,2013-03-17 04:17:00,
2013-03-17 00:32:00,33.5,16.0,29.92,ENE,58,7.0,9.0,49,0.00,,,0.00,weatherlink.com 1.10,2013-03-17 04:32:00,
2013-03-17 00:47:00,32.7,12.0,29.92,ENE,72,3.0,8.0,42,0.00,,,0.00,weatherlink.com 1.10,2013-03-17 04:47:00,
2013-03-17 01:02:00,32.2,11.0,29.93,ENE,71,0.0,6.0,41,0.00,,,0.00,weatherlink.com 1.10,2013-03-17 05:02:00,
2013-03-17 01:17:00,31.9,11.0,29.93,ENE,65,7.0,7.0,41,0.00,,,0.00,weatherlink.com 1.10,2013-03-17 05:17:00,
2013-03-17 01:34:00,31.7,11.0,29.94,SE,141,0.0,4.0,42,0.00,,,0.00,weatherlink.com 1.10,2013-03-17 05:34:00,
2013-03-17 01:48:00,31.5,10.0,29.93,NNE,20,4.0,9.0,41,0.00,,,0.00,weatherlink.com 1.10,2013-03-17 05:48:00,
2013-03-17 02:04:00,31.5,10.0,29.94,NE,55,0.0,7.0,41,0.00,,,0.00,weatherlink.com 1.10,2013-03-17 06:04:00,
2013-03-17 02:18:00,31.3,11.0,29.94,NNE,18,1.0,3.0,42,0.00,,,0.00,weatherlink.com 1.10,2013-03-17 06:18:00,
2013-03-17 02:33:00,31.2,10.0,29.94,ENE,70,0.0,4.0,41,0.00,,,0.00,weatherlink.com 1.10,2013-03-17 06:33:00,
2013-03-17 02:48:00,31.2,11.0,29.93,NE,40,0.0,4.0,43,0.00,,,0.00,weatherlink.com 1.10,2013-03-17 06:48:00,
2013-03-17 03:03:00,31.0,11.0,29.93,ENE,67,0.0,2.0,43,0.00,,,0.00,weatherlink.com 1.10,2013-03-17 07:03:00,
2013-03-17 03:18:00,30.8,11.0,29.94,ENE,65,1.0,2.0,43,0.00,,,0.00,weatherlink.com 1.10,2013-03-17 07:18:00,
2013-03-17 03:33:00,30.9,10.0,29.94,WNW,299,1.0,3.0,42,0.00,,,0.00,weatherlink.com 1.10,2013-03-17 07:33:00,
2013-03-17 03:48:00,30.5,11.0,29.93,SE,134,0.0,2.0,44,0.00,,,0.00,weatherlink.com 1.10,2013-03-17 07:48:00,
2013-03-17 04:03:00,30.6,10.0,29.94,NE,37,0.0,3.0,43,0.00,,,0.00,weatherlink.com 1.10,2013-03-17 08:03:00,
2013-03-17 04:18:00,30.6,11.0,29.95,ENE,58,0.0,3.0,44,0.00,,,0.00,weatherlink.com 1.10,2013-03-17 08:18:00,
2013-03-17 04:48:00,30.0,11.0,29.96,NNW,345,1.0,3.0,45,0.00,,,0.00,weatherlink.com 1.10,2013-03-17 08:48:00,
2013-03-17 05:03:00,30.2,12.0,29.97,NNW,347,1.0,5.0,46,0.00,,,0.00,weatherlink.com 1.10,2013-03-17 09:03:00,
2013-03-17 05:18:00,29.7,12.0,29.97,WSW,257,2.0,5.0,48,0.00,,,0.00,weatherlink.com 1.10,2013-03-17 09:18:00,
2013-03-17 05:33:00,29.5,12.0,29.97,NNW,329,2.0,6.0,49,0.00,,,0.00,weatherlink.com 1.10,2013-03-17 09:33:00,
2013-03-17 05:48:00,29.2,13.0,29.98,West,276,4.0,6.0,50,0.00,,,0.00,weatherlink.com 1.10,2013-03-17 09:48:00,
2013-03-17 06:03:00,28.5,13.0,29.98,WNW,293,1.0,6.0,52,0.00,,,0.00,weatherlink.com 1.10,2013-03-17 10:03:00,
2013-03-17 06:18:00,28.3,13.0,29.98,WSW,245,3.0,5.0,53,0.00,,,0.00,weatherlink.com 1.10,2013-03-17 10:18:00,
2013-03-17 06:33:00,28.1,13.0,29.99,West,271,4.0,6.0,53,0.00,,,0.00,weatherlink.com 1.10,2013-03-17 10:33:00,
2013-03-17 06:48:00,28.1,13.0,29.99,NW,316,0.0,4.0,54,0.00,,,0.00,weatherlink.com 1.10,2013-03-17 10:48:00,
2013-03-17 07:03:00,27.9,13.0,30.00,NW,311,2.0,4.0,53,0.00,,,0.00,weatherlink.com 1.10,2013-03-17 11:03:00,
2013-03-17 07:18:00,27.9,13.0,30.01,NNW,332,1.0,5.0,54,0.00,,,0.00,weatherlink.com 1.10,2013-03-17 11:18:00,
2013-03-17 07:33:00,28.1,13.0,30.02,North,349,2.0,5.0,53,0.00,,,0.00,weatherlink.com 1.10,2013-03-17 11:33:00,
2013-03-17 07:48:00,28.5,13.0,30.03,NW,309,0.0,5.0,52,0.00,,,0.00,weatherlink.com 1.10,2013-03-17 11:48:00,
2013-03-17 08:03:00,28.4,12.0,30.05,WNW,300,4.0,10.0,50,0.00,,,0.00,weatherlink.com 1.10,2013-03-17 12:03:00,
2013-03-17 08:19:00,28.6,13.0,30.05,NNW,344,4.0,9.0,52,0.00,,,0.00,weatherlink.com 1.10,2013-03-17 12:19:00,
2013-03-17 08:34:00,28.7,12.0,30.07,SW,214,3.0,12.0,50,0.00,,,0.00,weatherlink.com 1.10,2013-03-17 12:34:00,
2013-03-17 08:49:00,29.0,13.0,30.07,WNW,295,4.0,15.0,51,0.00,,,0.00,weatherlink.com 1.10,2013-03-17 12:49:00,
2013-03-17 09:04:00,29.4,13.0,30.07,NNW,337,5.0,14.0,51,0.00,,,0.00,weatherlink.com 1.10,2013-03-17 13:04:00,
2013-03-17 09:19:00,29.5,14.0,30.06,NW,307,7.0,15.0,52,0.00,,,0.00,weatherlink.com 1.10,2013-03-17 13:19:00,
2013-03-17 09:34:00,29.9,14.0,30.07,NW,325,6.0,14.0,52,0.00,,,0.00,weatherlink.com 1.10,2013-03-17 13:34:00,
2013-03-17 09:49:00,30.2,13.0,30.07,SE,136,0.0,11.0,50,0.00,,,0.00,weatherlink.com 1.10,2013-03-17 13:49:00,
2013-03-17 10:04:00,30.6,10.0,30.07,NNW,340,2.0,17.0,42,0.00,,,0.00,weatherlink.com 1.10,2013-03-17 14:04:00,
2013-03-17 10:19:00,30.9,10.0,30.06,WSW,255,6.0,13.0,41,0.00,,,0.00,weatherlink.com 1.10,2013-03-17 14:19:00,
2013-03-17 10:34:00,31.9,9.0,30.07,NW,304,8.0,18.0,39,0.00,,,0.00,weatherlink.com 1.10,2013-03-17 14:34:00,
2013-03-17 10:49:00,32.0,9.0,30.07,West,281,7.0,15.0,39,0.00,,,0.00,weatherlink.com 1.10,2013-03-17 14:49:00,
2013-03-17 11:04:00,32.7,9.0,30.07,WNW,296,8.0,16.0,37,0.00,,,0.00,weatherlink.com 1.10,2013-03-17 15:04:00,
2013-03-17 11:19:00,33.0,9.0,30.07,North,354,6.0,13.0,37,0.00,,,0.00,weatherlink.com 1.10,2013-03-17 15:19:00,
2013-03-17 11:34:00,33.7,9.0,30.07,NW,315,11.0,15.0,35,0.00,,,0.00,weatherlink.com 1.10,2013-03-17 15:34:00,
2013-03-17 11:49:00,33.9,9.0,30.07,NW,304,5.0,17.0,36,0.00,,,0.00,weatherlink.com 1.10,2013-03-17 15:49:00,
2013-03-17 12:04:00,34.3,9.0,30.08,WNW,300,3.0,16.0,35,0.00,,,0.00,weatherlink.com 1.10,2013-03-17 16:04:00,
2013-03-17 12:19:00,34.7,9.0,30.08,NW,326,11.0,17.0,34,0.00,,,0.00,weatherlink.com 1.10,2013-03-17 16:19:00,
2013-03-17 12:34:00,35.6,9.0,30.07,NNE,27,7.0,13.0,33,0.00,,,0.00,weatherlink.com 1.10,2013-03-17 16:34:00,
2013-03-17 12:49:00,35.4,7.0,30.07,WNW,303,13.0,20.0,31,0.00,,,0.00,weatherlink.com 1.10,2013-03-17 16:49:00,
2013-03-17 13:04:00,35.6,7.0,30.07,NNW,330,6.0,15.0,30,0.00,,,0.00,weatherlink.com 1.10,2013-03-17 17:04:00,
2013-03-17 13:19:00,36.3,7.0,30.07,West,271,2.0,12.0,30,0.00,,,0.00,weatherlink.com 1.10,2013-03-17 17:19:00,
2013-03-17 13:34:00,35.8,6.0,30.07,WNW,300,7.0,18.0,29,0.00,,,0.00,weatherlink.com 1.10,2013-03-17 17:34:00,
2013-03-17 13:49:00,36.1,7.0,30.07,NW,314,5.0,12.0,29,0.00,,,0.00,weatherlink.com 1.10,2013-03-17 17:49:00,
2013-03-17 14:04:00,36.4,6.0,30.07,WNW,292,4.0,14.0,28,0.00,,,0.00,weatherlink.com 1.10,2013-03-17 18:04:00,
2013-03-17 14:19:00,35.8,4.0,30.07,WNW,298,7.0,19.0,26,0.00,,,0.00,weatherlink.com 1.10,2013-03-17 18:19:00,
2013-03-17 14:34:00,35.7,3.0,30.07,NW,304,4.0,23.0,25,0.00,,,0.00,weatherlink.com 1.10,2013-03-17 18:34:00,
2013-03-17 14:49:00,36.1,3.0,30.08,WNW,293,12.0,23.0,25,0.00,,,0.00,weatherlink.com 1.10,2013-03-17 18:49:00,
2013-03-17 15:04:00,35.8,4.0,30.08,WNW,300,3.0,20.0,26,0.00,,,0.00,weatherlink.com 1.10,2013-03-17 19:04:00,
2013-03-17 15:19:00,36.3,3.0,30.08,WNW,288,9.0,14.0,25,0.00,,,0.00,weatherlink.com 1.10,2013-03-17 19:19:00,
2013-03-17 15:34:00,35.9,3.0,30.09,WNW,289,6.0,20.0,25,0.00,,,0.00,weatherlink.com 1.10,2013-03-17 19:34:00,
2013-03-17 15:49:00,36.4,4.0,30.10,WNW,295,11.0,16.0,25,0.00,,,0.00,weatherlink.com 1.10,2013-03-17 19:49:00,
2013-03-17 16:04:00,35.9,3.0,30.10,West,260,5.0,15.0,25,0.00,,,0.00,weatherlink.com 1.10,2013-03-17 20:04:00,
2013-03-17 16:19:00,36.6,3.0,30.11,West,280,8.0,18.0,24,0.00,,,0.00,weatherlink.com 1.10,2013-03-17 20:19:00,
2013-03-17 16:34:00,36.0,3.0,30.12,NW,316,4.0,19.0,25,0.00,,,0.00,weatherlink.com 1.10,2013-03-17 20:34:00,
2013-03-17 16:49:00,36.3,3.0,30.12,NW,318,3.0,19.0,25,0.00,,,0.00,weatherlink.com 1.10,2013-03-17 20:49:00,
2013-03-17 17:04:00,36.2,4.0,30.13,WNW,301,9.0,15.0,26,0.00,,,0.00,weatherlink.com 1.10,2013-03-17 21:04:00,
2013-03-17 17:19:00,36.1,4.0,30.14,NNE,19,3.0,10.0,26,0.00,,,0.00,weatherlink.com 1.10,2013-03-17 21:19:00,
2013-03-17 17:34:00,35.9,5.0,30.14,West,269,7.0,12.0,27,0.00,,,0.00,weatherlink.com 1.10,2013-03-17 21:34:00,
2013-03-17 17:49:00,35.2,4.0,30.15,NW,308,2.0,13.0,27,0.00,,,0.00,weatherlink.com 1.10,2013-03-17 21:49:00,
2013-03-17 18:04:00,34.8,5.0,30.16,NW,307,4.0,16.0,28,0.00,,,0.00,weatherlink.com 1.10,2013-03-17 22:04:00,
2013-03-17 18:20:00,35.2,6.0,30.17,NNE,32,1.0,4.0,29,0.00,,,0.00,weatherlink.com 1.10,2013-03-17 22:20:00,
2013-03-17 18:35:00,34.2,6.0,30.17,ENE,64,2.0,10.0,30,0.00,,,0.00,weatherlink.com 1.10,2013-03-17 22:35:00,
2013-03-17 18:50:00,33.8,6.0,30.19,West,274,2.0,12.0,31,0.00,,,0.00,weatherlink.com 1.10,2013-03-17 22:50:00,
2013-03-17 19:05:00,33.4,6.0,30.20,North,358,4.0,9.0,31,0.00,,,0.00,weatherlink.com 1.10,2013-03-17 23:05:00,
2013-03-17 19:20:00,33.3,6.0,30.21,WSW,256,0.0,6.0,32,0.00,,,0.00,weatherlink.com 1.10,2013-03-17 23:20:00,
2013-03-17 19:35:00,33.1,5.0,30.22,WNW,288,3.0,10.0,31,0.00,,,0.00,weatherlink.com 1.10,2013-03-17 23:35:00,
2013-03-17 19:50:00,32.9,5.0,30.23,NW,307,4.0,10.0,31,0.00,,,0.00,weatherlink.com 1.10,2013-03-17 23:50:00,
2013-03-17 20:05:00,32.7,6.0,30.24,WNW,295,3.0,10.0,32,0.00,,,0.00,weatherlink.com 1.10,2013-03-18 00:05:00,
2013-03-17 20:20:00,32.4,5.0,30.25,ESE,122,2.0,7.0,32,0.00,,,0.00,weatherlink.com 1.10,2013-03-18 00:20:00,
2013-03-17 20:35:00,32.2,6.0,30.25,NNW,332,2.0,9.0,33,0.00,,,0.00,weatherlink.com 1.10,2013-03-18 00:35:00,
2013-03-17 20:50:00,32.0,6.0,30.27,WSW,252,2.0,9.0,33,0.00,,,0.00,weatherlink.com 1.10,2013-03-18 00:50:00,
2013-03-17 21:05:00,31.8,5.0,30.27,WNW,298,3.0,6.0,32,0.00,,,0.00,weatherlink.com 1.10,2013-03-18 01:05:00,
2013-03-17 21:20:00,31.5,5.0,30.28,WNW,300,3.0,11.0,32,0.00,,,0.00,weatherlink.com 1.10,2013-03-18 01:20:00,
2013-03-17 21:36:00,31.2,4.0,30.29,West,260,0.0,7.0,31,0.00,,,0.00,weatherlink.com 1.10,2013-03-18 01:36:00,
2013-03-17 21:50:00,30.8,3.0,30.30,NW,309,4.0,8.0,31,0.00,,,0.00,weatherlink.com 1.10,2013-03-18 01:50:00,
2013-03-17 22:05:00,30.4,3.0,30.31,WNW,295,1.0,10.0,31,0.00,,,0.00,weatherlink.com 1.10,2013-03-18 02:05:00,
2013-03-17 22:20:00,30.2,4.0,30.32,NNW,339,0.0,4.0,32,0.00,,,0.00,weatherlink.com 1.10,2013-03-18 02:20:00,
2013-03-17 22:35:00,29.9,4.0,30.32,NE,55,1.0,8.0,33,0.00,,,0.00,weatherlink.com 1.10,2013-03-18 02:35:00,
2013-03-17 22:50:00,29.4,5.0,30.33,ESE,108,0.0,6.0,35,0.00,,,0.00,weatherlink.com 1.10,2013-03-18 02:50:00,
2013-03-17 23:05:00,29.0,5.0,30.34,NW,306,1.0,4.0,36,0.00,,,0.00,weatherlink.com 1.10,2013-03-18 03:05:00,
2013-03-17 23:20:00,28.1,4.0,30.35,WNW,295,2.0,4.0,35,0.00,,,0.00,weatherlink.com 1.10,2013-03-18 03:20:00,
2013-03-17 23:35:00,27.7,3.0,30.36,NW,311,3.0,7.0,35,0.00,,,0.00,weatherlink.com 1.10,2013-03-18 03:35:00,
2013-03-17 23:50:00,27.3,3.0,30.36,NNW,340,3.0,3.0,35,0.00,,,0.00,weatherlink.com 1.10,2013-03-18 03:50:00,